Rosepine, Louisiana
Current Conditions -  °F | °C
As of 11:55 AM on Wednesday 28 Jan 2015 (Local Time) from KDRI Reporting Station
Clear Clear  
Wind Chill: 67°   Ceiling: Unl
Heat Index: 67°   Visibility: 10mi
Dew Point: 37°   Wind: 0mph
Humidity: 34%   Direction: NA
Pressure: 30.26"   Gusts: NA
Location:  30.92°N, 93.28°W
Report Text: KDRI 281755Z AUTO 00000KT 10SM CLR 19/03 A3026 RMK AO2 T01940029 10194 20045
Loading
Personal Weather Stations






























Interactive Weather Map New forecast layout! Learn more

10-Day Weather Forecast

Advertisements
Track Severe Weather on mobile